sensor_id;sensor_type;location;lat;lon;timestamp;pressure;altitude;pressure_sealevel;temperature;humidity
25855;BME280;13680;49.936;11.344;2023-03-20T00:00:38;96855.50;;;9.53;83.46
25855;BME280;13680;49.936;11.344;2023-03-20T00:03:09;96865.94;;;9.54;82.77
25855;BME280;13680;49.936;11.344;2023-03-20T00:05:36;96856.50;;;9.57;83.02
25855;BME280;13680;49.936;11.344;2023-03-20T00:08:02;96858.41;;;9.56;82.34
25855;BME280;13680;49.936;11.344;2023-03-20T00:10:36;96858.53;;;9.46;83.24
25855;BME280;13680;49.936;11.344;2023-03-20T00:13:03;96860.69;;;9.44;82.76
25855;BME280;13680;49.936;11.344;2023-03-20T00:15:37;96863.19;;;9.40;82.83
25855;BME280;13680;49.936;11.344;2023-03-20T00:18:12;96862.97;;;9.37;82.59
25855;BME280;13680;49.936;11.344;2023-03-20T00:20:37;96868.66;;;9.30;82.48
25855;BME280;13680;49.936;11.344;2023-03-20T00:23:03;96864.66;;;9.27;82.12
25855;BME280;13680;49.936;11.344;2023-03-20T00:25:29;96869.03;;;9.23;82.32
25855;BME280;13680;49.936;11.344;2023-03-20T00:27:54;96861.03;;;9.18;81.88
25855;BME280;13680;49.936;11.344;2023-03-20T00:30:28;96856.25;;;9.15;81.82
25855;BME280;13680;49.936;11.344;2023-03-20T00:32:56;96867.59;;;9.07;82.11
25855;BME280;13680;49.936;11.344;2023-03-20T00:37:50;96861.75;;;9.05;81.91
25855;BME280;13680;49.936;11.344;2023-03-20T00:40:16;96861.22;;;9.03;81.54
25855;BME280;13680;49.936;11.344;2023-03-20T00:42:43;96860.69;;;9.00;81.96
25855;BME280;13680;49.936;11.344;2023-03-20T00:45:17;96854.78;;;9.04;82.66
25855;BME280;13680;49.936;11.344;2023-03-20T00:47:43;96860.16;;;9.04;82.95
25855;BME280;13680;49.936;11.344;2023-03-20T00:50:20;96856.88;;;9.07;82.68
25855;BME280;13680;49.936;11.344;2023-03-20T00:52:48;96864.59;;;9.13;82.86
25855;BME280;13680;49.936;11.344;2023-03-20T00:55:14;96857.91;;;9.11;82.34
25855;BME280;13680;49.936;11.344;2023-03-20T00:57:54;96856.31;;;9.10;82.55
25855;BME280;13680;49.936;11.344;2023-03-20T01:02:55;96854.78;;;9.04;83.18
25855;BME280;13680;49.936;11.344;2023-03-20T01:05:23;96854.50;;;9.05;83.73
25855;BME280;13680;49.936;11.344;2023-03-20T01:07:48;96849.66;;;9.07;83.20
25855;BME280;13680;49.936;11.344;2023-03-20T01:10:15;96851.50;;;9.07;82.93
25855;BME280;13680;49.936;11.344;2023-03-20T01:12:42;96852.03;;;9.09;83.16
25855;BME280;13680;49.936;11.344;2023-03-20T01:15:21;96851.44;;;9.12;82.96
25855;BME280;13680;49.936;11.344;2023-03-20T01:17:48;96850.44;;;9.08;83.38
25855;BME280;13680;49.936;11.344;2023-03-20T01:20:21;96862.25;;;9.07;83.30
25855;BME280;13680;49.936;11.344;2023-03-20T01:22:47;96862.78;;;9.09;82.99
25855;BME280;13680;49.936;11.344;2023-03-20T01:25:12;96858.84;;;9.01;82.74
25855;BME280;13680;49.936;11.344;2023-03-20T01:27:38;96848.16;;;8.96;82.36
25855;BME280;13680;49.936;11.344;2023-03-20T01:32:43;96858.78;;;8.82;82.07
25855;BME280;13680;49.936;11.344;2023-03-20T01:35:20;96859.13;;;8.75;81.77
25855;BME280;13680;49.936;11.344;2023-03-20T01:37:46;96861.91;;;8.65;81.25
25855;BME280;13680;49.936;11.344;2023-03-20T01:40:26;96861.94;;;8.60;81.73
25855;BME280;13680;49.936;11.344;2023-03-20T01:42:54;96867.31;;;8.60;81.84
25855;BME280;13680;49.936;11.344;2023-03-20T01:45:23;96865.72;;;8.59;81.63
25855;BME280;13680;49.936;11.344;2023-03-20T01:47:50;96857.94;;;8.57;81.93
25855;BME280;13680;49.936;11.344;2023-03-20T01:52:48;96864.41;;;8.56;82.76
25855;BME280;13680;49.936;11.344;2023-03-20T01:55:14;96861.94;;;8.60;82.60
25855;BME280;13680;49.936;11.344;2023-03-20T01:57:40;96864.91;;;8.58;82.63
25855;BME280;13680;49.936;11.344;2023-03-20T02:00:12;96868.13;;;8.60;83.58
25855;BME280;13680;49.936;11.344;2023-03-20T02:02:40;96868.91;;;8.61;83.31
25855;BME280;13680;49.936;11.344;2023-03-20T02:05:09;96869.50;;;8.58;83.99
25855;BME280;13680;49.936;11.344;2023-03-20T02:07:36;96869.72;;;8.61;83.99
25855;BME280;13680;49.936;11.344;2023-03-20T02:10:09;96864.91;;;8.58;84.13
25855;BME280;13680;49.936;11.344;2023-03-20T02:12:35;96863.25;;;8.62;83.76
25855;BME280;13680;49.936;11.344;2023-03-20T02:15:03;96863.78;;;8.64;84.00
25855;BME280;13680;49.936;11.344;2023-03-20T02:17:29;96862.19;;;8.63;84.40
25855;BME280;13680;49.936;11.344;2023-03-20T02:23:28;96860.81;;;8.66;85.21
25855;BME280;13680;49.936;11.344;2023-03-20T02:30:01;96871.22;;;8.73;84.93
25855;BME280;13680;49.936;11.344;2023-03-20T02:32:10;96872.66;;;8.65;84.84
25855;BME280;13680;49.936;11.344;2023-03-20T02:35:06;96872.91;;;8.63;85.40
25855;BME280;13680;49.936;11.344;2023-03-20T02:38:11;96877.38;;;8.73;85.25
25855;BME280;13680;49.936;11.344;2023-03-20T02:43:39;96878.75;;;8.71;85.83
25855;BME280;13680;49.936;11.344;2023-03-20T03:00:39;96878.78;;;8.65;85.91
25855;BME280;13680;49.936;11.344;2023-03-20T03:03:19;96874.75;;;8.68;85.80
25855;BME280;13680;49.936;11.344;2023-03-20T03:05:53;96877.44;;;8.68;85.40
25855;BME280;13680;49.936;11.344;2023-03-20T03:08:22;96877.13;;;8.70;84.95
25855;BME280;13680;49.936;11.344;2023-03-20T03:10:54;96879.88;;;8.64;85.38
25855;BME280;13680;49.936;11.344;2023-03-20T03:13:26;96872.13;;;8.63;84.56
25855;BME280;13680;49.936;11.344;2023-03-20T03:15:56;96875.69;;;8.53;85.11
25855;BME280;13680;49.936;11.344;2023-03-20T03:18:28;96872.22;;;8.52;85.38
25855;BME280;13680;49.936;11.344;2023-03-20T03:20:57;96881.63;;;8.50;85.42
25855;BME280;13680;49.936;11.344;2023-03-20T03:23:36;96876.25;;;8.50;85.39
25855;BME280;13680;49.936;11.344;2023-03-20T03:26:06;96876.28;;;8.45;85.17
25855;BME280;13680;49.936;11.344;2023-03-20T03:28:40;96880.81;;;8.44;85.42
25855;BME280;13680;49.936;11.344;2023-03-20T03:31:11;96883.00;;;8.42;84.86
25855;BME280;13680;49.936;11.344;2023-03-20T03:33:39;96880.88;;;8.39;84.61
25855;BME280;13680;49.936;11.344;2023-03-20T03:36:08;96871.53;;;8.36;85.38
25855;BME280;13680;49.936;11.344;2023-03-20T03:38:43;96879.00;;;8.40;85.37
25855;BME280;13680;49.936;11.344;2023-03-20T03:41:21;96878.19;;;8.39;85.61
25855;BME280;13680;49.936;11.344;2023-03-20T03:44:12;96876.56;;;8.48;85.44
25855;BME280;13680;49.936;11.344;2023-03-20T03:46:53;96880.56;;;8.51;84.45
25855;BME280;13680;49.936;11.344;2023-03-20T03:49:29;96877.91;;;8.46;84.90
25855;BME280;13680;49.936;11.344;2023-03-20T03:52:03;96882.25;;;8.36;85.33
25855;BME280;13680;49.936;11.344;2023-03-20T03:54:34;96886.22;;;8.39;85.79
25855;BME280;13680;49.936;11.344;2023-03-20T03:57:02;96879.81;;;8.40;85.75
25855;BME280;13680;49.936;11.344;2023-03-20T03:59:35;96885.16;;;8.40;85.43
25855;BME280;13680;49.936;11.344;2023-03-20T04:02:03;96875.28;;;8.35;85.82
25855;BME280;13680;49.936;11.344;2023-03-20T04:04:30;96878.16;;;8.44;85.62
25855;BME280;13680;49.936;11.344;2023-03-20T04:06:56;96878.97;;;8.45;85.73
25855;BME280;13680;49.936;11.344;2023-03-20T04:09:22;96877.38;;;8.44;86.17
25855;BME280;13680;49.936;11.344;2023-03-20T04:11:50;96879.25;;;8.43;85.75
25855;BME280;13680;49.936;11.344;2023-03-20T04:14:16;96879.22;;;8.48;85.56
25855;BME280;13680;49.936;11.344;2023-03-20T04:16:42;96887.50;;;8.52;85.54
25855;BME280;13680;49.936;11.344;2023-03-20T04:19:08;96902.00;;;8.51;85.79
25855;BME280;13680;49.936;11.344;2023-03-20T04:21:33;96893.41;;;8.49;85.87
25855;BME280;13680;49.936;11.344;2023-03-20T04:23:58;96898.22;;;8.52;86.05
25855;BME280;13680;49.936;11.344;2023-03-20T04:26:24;96892.34;;;8.50;86.28
25855;BME280;13680;49.936;11.344;2023-03-20T04:28:49;96892.84;;;8.52;86.18
25855;BME280;13680;49.936;11.344;2023-03-20T04:31:15;96893.38;;;8.54;86.04
25855;BME280;13680;49.936;11.344;2023-03-20T04:33:42;96895.47;;;8.57;86.00
25855;BME280;13680;49.936;11.344;2023-03-20T04:36:08;96896.00;;;8.59;86.02
25855;BME280;13680;49.936;11.344;2023-03-20T04:38:33;96898.09;;;8.62;86.07
25855;BME280;13680;49.936;11.344;2023-03-20T04:40:59;96897.59;;;8.60;86.15
25855;BME280;13680;49.936;11.344;2023-03-20T04:43:24;96901.91;;;8.61;85.72
25855;BME280;13680;49.936;11.344;2023-03-20T04:45:50;96899.72;;;8.63;85.58
25855;BME280;13680;49.936;11.344;2023-03-20T04:48:15;96895.47;;;8.57;85.98
25855;BME280;13680;49.936;11.344;2023-03-20T04:50:40;96893.91;;;8.56;85.88
25855;BME280;13680;49.936;11.344;2023-03-20T04:53:06;96898.69;;;8.59;85.76
25855;BME280;13680;49.936;11.344;2023-03-20T04:55:32;96900.56;;;8.59;86.08
25855;BME280;13680;49.936;11.344;2023-03-20T04:57:57;96894.97;;;8.55;86.11
25855;BME280;13680;49.936;11.344;2023-03-20T05:00:22;96902.44;;;8.58;86.12
25855;BME280;13680;49.936;11.344;2023-03-20T05:02:48;96905.94;;;8.59;86.28
25855;BME280;13680;49.936;11.344;2023-03-20T05:05:13;96908.31;;;8.60;86.10
25855;BME280;13680;49.936;11.344;2023-03-20T05:07:38;96915.25;;;8.66;86.27
25855;BME280;13680;49.936;11.344;2023-03-20T05:10:04;96902.91;;;8.65;85.75
25855;BME280;13680;49.936;11.344;2023-03-20T05:12:30;96914.19;;;8.62;85.85
25855;BME280;13680;49.936;11.344;2023-03-20T05:14:56;96915.78;;;8.63;85.87
25855;BME280;13680;49.936;11.344;2023-03-20T05:17:22;96918.22;;;8.65;86.00
25855;BME280;13680;49.936;11.344;2023-03-20T05:19:48;96923.28;;;8.66;85.62
25855;BME280;13680;49.936;11.344;2023-03-20T05:22:17;96924.13;;;8.62;86.07
25855;BME280;13680;49.936;11.344;2023-03-20T05:24:43;96931.38;;;8.61;85.81
25855;BME280;13680;49.936;11.344;2023-03-20T05:27:08;96929.72;;;8.65;85.90
25855;BME280;13680;49.936;11.344;2023-03-20T05:29:34;96934.00;;;8.66;86.20
25855;BME280;13680;49.936;11.344;2023-03-20T05:31:59;96939.22;;;8.82;86.21
25855;BME280;13680;49.936;11.344;2023-03-20T05:34:25;96948.34;;;8.81;87.07
25855;BME280;13680;49.936;11.344;2023-03-20T05:36:52;96935.97;;;8.85;86.89
25855;BME280;13680;49.936;11.344;2023-03-20T05:39:17;96937.34;;;8.82;86.96
25855;BME280;13680;49.936;11.344;2023-03-20T05:41:42;96938.09;;;8.88;86.96
25855;BME280;13680;49.936;11.344;2023-03-20T05:44:08;96943.69;;;8.92;86.59
25855;BME280;13680;49.936;11.344;2023-03-20T05:46:33;96949.78;;;8.97;86.67
25855;BME280;13680;49.936;11.344;2023-03-20T05:48:58;96942.00;;;9.01;88.59
25855;BME280;13680;49.936;11.344;2023-03-20T05:51:24;96944.09;;;9.04;88.22
25855;BME280;13680;49.936;11.344;2023-03-20T05:53:49;96946.44;;;9.11;88.16
25855;BME280;13680;49.936;11.344;2023-03-20T05:56:15;96941.81;;;9.16;87.96
25855;BME280;13680;49.936;11.344;2023-03-20T05:58:40;96951.25;;;9.14;88.58
25855;BME280;13680;49.936;11.344;2023-03-20T06:01:06;96946.06;;;9.23;88.69
25855;BME280;13680;49.936;11.344;2023-03-20T06:03:31;96952.72;;;9.25;88.84
25855;BME280;13680;49.936;11.344;2023-03-20T06:05:57;96949.41;;;9.33;88.41
25855;BME280;13680;49.936;11.344;2023-03-20T06:08:22;96954.47;;;9.35;88.86
25855;BME280;13680;49.936;11.344;2023-03-20T06:10:51;96954.78;;;9.33;90.24
25855;BME280;13680;49.936;11.344;2023-03-20T06:13:16;96965.38;;;9.44;91.53
25855;BME280;13680;49.936;11.344;2023-03-20T06:15:42;96962.31;;;9.56;91.42
25855;BME280;13680;49.936;11.344;2023-03-20T06:18:07;96968.34;;;9.66;90.24
25855;BME280;13680;49.936;11.344;2023-03-20T06:20:32;96974.94;;;9.74;90.53
25855;BME280;13680;49.936;11.344;2023-03-20T06:22:58;96972.34;;;9.69;90.81
25855;BME280;13680;49.936;11.344;2023-03-20T06:25:23;96966.66;;;9.71;90.75
25855;BME280;13680;49.936;11.344;2023-03-20T06:27:49;96971.97;;;9.76;91.09
25855;BME280;13680;49.936;11.344;2023-03-20T06:30:15;96972.78;;;9.76;91.32
25855;BME280;13680;49.936;11.344;2023-03-20T06:32:41;96969.41;;;9.65;92.23
25855;BME280;13680;49.936;11.344;2023-03-20T06:35:07;96967.06;;;9.83;91.20
25855;BME280;13680;49.936;11.344;2023-03-20T06:37:34;96962.91;;;9.91;91.24
25855;BME280;13680;49.936;11.344;2023-03-20T06:40:00;96959.31;;;10.01;90.53
25855;BME280;13680;49.936;11.344;2023-03-20T06:42:26;96971.34;;;10.03;90.93
25855;BME280;13680;49.936;11.344;2023-03-20T06:44:51;96965.16;;;10.03;90.54
25855;BME280;13680;49.936;11.344;2023-03-20T06:47:16;96966.13;;;10.12;90.30
25855;BME280;13680;49.936;11.344;2023-03-20T06:49:42;96978.03;;;10.06;90.37
25855;BME280;13680;49.936;11.344;2023-03-20T06:52:14;96972.06;;;10.09;90.42
25855;BME280;13680;49.936;11.344;2023-03-20T06:54:42;96976.81;;;10.17;90.27
25855;BME280;13680;49.936;11.344;2023-03-20T06:57:07;96970.84;;;10.20;89.87
25855;BME280;13680;49.936;11.344;2023-03-20T06:59:32;96979.13;;;10.24;89.30
25855;BME280;13680;49.936;11.344;2023-03-20T07:01:58;96979.03;;;10.29;89.63
25855;BME280;13680;49.936;11.344;2023-03-20T07:04:23;96981.13;;;10.37;89.41
25855;BME280;13680;49.936;11.344;2023-03-20T07:06:49;96969.03;;;10.15;89.85
25855;BME280;13680;49.936;11.344;2023-03-20T07:09:15;96979.13;;;10.24;89.67
25855;BME280;13680;49.936;11.344;2023-03-20T07:11:41;96970.69;;;10.30;89.12
25855;BME280;13680;49.936;11.344;2023-03-20T07:14:07;96970.34;;;10.18;90.17
25855;BME280;13680;49.936;11.344;2023-03-20T07:16:33;96977.50;;;10.04;90.58
25855;BME280;13680;49.936;11.344;2023-03-20T07:18:58;96971.72;;;9.96;90.98
25855;BME280;13680;49.936;11.344;2023-03-20T07:21:23;96980.06;;;10.14;91.60
25855;BME280;13680;49.936;11.344;2023-03-20T07:23:49;96974.75;;;10.28;90.38
25855;BME280;13680;49.936;11.344;2023-03-20T07:26:15;96986.53;;;10.51;89.07
25855;BME280;13680;49.936;11.344;2023-03-20T07:28:40;96979.81;;;10.29;89.25
25855;BME280;13680;49.936;11.344;2023-03-20T07:31:06;96984.06;;;10.36;89.31
25855;BME280;13680;49.936;11.344;2023-03-20T07:33:31;96985.28;;;10.43;89.08
25855;BME280;13680;49.936;11.344;2023-03-20T07:35:56;96986.34;;;10.47;88.73
25855;BME280;13680;49.936;11.344;2023-03-20T07:38:22;96978.97;;;10.53;88.76
25855;BME280;13680;49.936;11.344;2023-03-20T07:40:48;96978.59;;;10.60;88.56
25855;BME280;13680;49.936;11.344;2023-03-20T07:43:15;96990.94;;;10.61;88.58
25855;BME280;13680;49.936;11.344;2023-03-20T07:45:41;96987.38;;;10.66;88.09
25855;BME280;13680;49.936;11.344;2023-03-20T07:48:06;96982.97;;;10.56;88.12
25855;BME280;13680;49.936;11.344;2023-03-20T07:50:32;96984.19;;;10.63;87.71
25855;BME280;13680;49.936;11.344;2023-03-20T07:52:57;96990.06;;;10.66;86.93
25855;BME280;13680;49.936;11.344;2023-03-20T07:55:22;96996.38;;;10.75;86.47
25855;BME280;13680;49.936;11.344;2023-03-20T07:57:48;96992.38;;;10.72;86.55
25855;BME280;13680;49.936;11.344;2023-03-20T08:00:14;97001.75;;;10.75;86.48
25855;BME280;13680;49.936;11.344;2023-03-20T08:02:41;97000.72;;;10.38;88.30
25855;BME280;13680;49.936;11.344;2023-03-20T08:05:06;96998.03;;;10.38;87.62
25855;BME280;13680;49.936;11.344;2023-03-20T08:07:32;97002.94;;;10.30;88.84
25855;BME280;13680;49.936;11.344;2023-03-20T08:09:57;96994.66;;;10.08;90.86
25855;BME280;13680;49.936;11.344;2023-03-20T08:12:22;97002.72;;;9.89;92.45
25855;BME280;13680;49.936;11.344;2023-03-20T08:14:48;97006.38;;;9.74;93.13
25855;BME280;13680;49.936;11.344;2023-03-20T08:17:13;97003.00;;;10.25;90.63
25855;BME280;13680;49.936;11.344;2023-03-20T08:19:38;96994.59;;;10.13;90.34
25855;BME280;13680;49.936;11.344;2023-03-20T08:22:04;96988.19;;;10.28;90.57
25855;BME280;13680;49.936;11.344;2023-03-20T08:24:29;96995.31;;;10.57;88.80
25855;BME280;13680;49.936;11.344;2023-03-20T08:26:55;96996.03;;;10.62;88.25
25855;BME280;13680;49.936;11.344;2023-03-20T08:29:21;96987.56;;;10.55;88.47
25855;BME280;13680;49.936;11.344;2023-03-20T08:31:46;96988.91;;;10.72;88.67
25855;BME280;13680;49.936;11.344;2023-03-20T08:34:11;96995.16;;;10.67;87.70
25855;BME280;13680;49.936;11.344;2023-03-20T08:36:37;96986.03;;;10.82;86.96
25855;BME280;13680;49.936;11.344;2023-03-20T08:39:04;96982.84;;;10.80;87.07
25855;BME280;13680;49.936;11.344;2023-03-20T08:41:31;96992.13;;;10.88;87.89
25855;BME280;13680;49.936;11.344;2023-03-20T08:43:56;96994.28;;;11.05;87.35
25855;BME280;13680;49.936;11.344;2023-03-20T08:46:22;96995.09;;;11.19;87.16
25855;BME280;13680;49.936;11.344;2023-03-20T08:48:47;96992.56;;;10.62;87.66
25855;BME280;13680;49.936;11.344;2023-03-20T08:51:12;97000.38;;;10.77;87.29
25855;BME280;13680;49.936;11.344;2023-03-20T08:53:37;96996.03;;;10.95;86.80
25855;BME280;13680;49.936;11.344;2023-03-20T08:56:03;96999.66;;;11.05;86.28
25855;BME280;13680;49.936;11.344;2023-03-20T08:58:28;97005.13;;;11.13;86.61
25855;BME280;13680;49.936;11.344;2023-03-20T09:00:54;96999.88;;;11.22;87.18
25855;BME280;13680;49.936;11.344;2023-03-20T09:03:20;96994.28;;;11.46;86.20
25855;BME280;13680;49.936;11.344;2023-03-20T09:05:47;97009.66;;;11.46;85.32
25855;BME280;13680;49.936;11.344;2023-03-20T09:08:14;97011.06;;;11.57;85.13
25855;BME280;13680;49.936;11.344;2023-03-20T09:10:39;97019.41;;;11.14;84.80
25855;BME280;13680;49.936;11.344;2023-03-20T09:13:05;97014.38;;;10.93;88.06
25855;BME280;13680;49.936;11.344;2023-03-20T09:15:31;97023.91;;;10.86;87.80
25855;BME280;13680;49.936;11.344;2023-03-20T09:17:57;97015.00;;;11.18;86.80
25855;BME280;13680;49.936;11.344;2023-03-20T09:20:22;97018.56;;;11.00;86.67
25855;BME280;13680;49.936;11.344;2023-03-20T09:22:48;97021.19;;;11.19;86.00
25855;BME280;13680;49.936;11.344;2023-03-20T09:25:13;97025.78;;;10.85;87.47
25855;BME280;13680;49.936;11.344;2023-03-20T09:27:39;97020.78;;;11.11;86.13
25855;BME280;13680;49.936;11.344;2023-03-20T09:30:06;97018.97;;;11.07;87.58
25855;BME280;13680;49.936;11.344;2023-03-20T09:32:32;97024.25;;;10.98;87.73
25855;BME280;13680;49.936;11.344;2023-03-20T09:34:58;97026.19;;;11.25;85.84
25855;BME280;13680;49.936;11.344;2023-03-20T09:37:24;97024.59;;;11.24;85.36
25855;BME280;13680;49.936;11.344;2023-03-20T09:39:49;97029.91;;;11.43;85.02
25855;BME280;13680;49.936;11.344;2023-03-20T09:42:33;97032.31;;;11.59;84.54
25855;BME280;13680;49.936;11.344;2023-03-20T09:45:10;97032.72;;;11.52;84.59
25855;BME280;13680;49.936;11.344;2023-03-20T09:47:48;97029.41;;;11.69;83.74
25855;BME280;13680;49.936;11.344;2023-03-20T09:50:27;97036.38;;;11.28;85.10
25855;BME280;13680;49.936;11.344;2023-03-20T09:53:10;97038.78;;;11.58;84.14
25855;BME280;13680;49.936;11.344;2023-03-20T09:55:39;97035.41;;;11.52;84.01
25855;BME280;13680;49.936;11.344;2023-03-20T09:58:24;97033.59;;;11.75;83.25
25855;BME280;13680;49.936;11.344;2023-03-20T10:00:50;97037.38;;;11.46;83.88
25855;BME280;13680;49.936;11.344;2023-03-20T10:03:24;97041.78;;;11.56;83.68
25855;BME280;13680;49.936;11.344;2023-03-20T10:06:05;97038.47;;;11.45;85.07
25855;BME280;13680;49.936;11.344;2023-03-20T10:08:33;97035.63;;;11.56;84.95
25855;BME280;13680;49.936;11.344;2023-03-20T10:11:09;97033.19;;;11.40;85.46
25855;BME280;13680;49.936;11.344;2023-03-20T10:16:44;97036.50;;;11.65;83.97
25855;BME280;13680;49.936;11.344;2023-03-20T10:19:29;97041.38;;;11.49;85.51
25855;BME280;13680;49.936;11.344;2023-03-20T10:22:10;97040.41;;;11.73;85.18
25855;BME280;13680;49.936;11.344;2023-03-20T10:25:22;97040.97;;;11.84;83.99
25855;BME280;13680;49.936;11.344;2023-03-20T10:28:00;97040.28;;;11.64;84.59
25855;BME280;13680;49.936;11.344;2023-03-20T10:35:59;97043.78;;;11.37;86.08
25855;BME280;13680;49.936;11.344;2023-03-20T10:39:09;97037.00;;;11.53;86.61
25855;BME280;13680;49.936;11.344;2023-03-20T10:41:41;97032.91;;;11.56;85.53
25855;BME280;13680;49.936;11.344;2023-03-20T10:44:42;97037.28;;;11.79;84.50
25855;BME280;13680;49.936;11.344;2023-03-20T10:47:09;97032.19;;;11.50;86.11
25855;BME280;13680;49.936;11.344;2023-03-20T10:49:42;97038.38;;;11.65;86.36
25855;BME280;13680;49.936;11.344;2023-03-20T10:52:24;97034.00;;;11.83;85.50
25855;BME280;13680;49.936;11.344;2023-03-20T10:54:59;97039.00;;;11.75;85.20
25855;BME280;13680;49.936;11.344;2023-03-20T10:57:28;97043.41;;;11.71;84.83
25855;BME280;13680;49.936;11.344;2023-03-20T10:59:56;97035.22;;;11.62;84.96
25855;BME280;13680;49.936;11.344;2023-03-20T11:02:28;97048.88;;;11.80;85.35
25855;BME280;13680;49.936;11.344;2023-03-20T11:04:54;97036.00;;;11.63;85.12
25855;BME280;13680;49.936;11.344;2023-03-20T11:07:33;97031.59;;;11.81;85.38
25855;BME280;13680;49.936;11.344;2023-03-20T11:12:33;97034.09;;;11.91;84.36
25855;BME280;13680;49.936;11.344;2023-03-20T11:14:59;97022.53;;;12.05;83.57
25855;BME280;13680;49.936;11.344;2023-03-20T11:17:28;97019.63;;;12.15;83.79
25855;BME280;13680;49.936;11.344;2023-03-20T11:20:01;97026.81;;;11.92;83.29
25855;BME280;13680;49.936;11.344;2023-03-20T11:22:28;97034.81;;;11.97;83.04
25855;BME280;13680;49.936;11.344;2023-03-20T11:24:55;97031.69;;;11.90;82.74
25855;BME280;13680;49.936;11.344;2023-03-20T11:27:27;97024.13;;;11.78;83.61
25855;BME280;13680;49.936;11.344;2023-03-20T11:29:54;97028.63;;;11.69;84.03
25855;BME280;13680;49.936;11.344;2023-03-20T11:32:31;97027.28;;;11.94;82.91
25855;BME280;13680;49.936;11.344;2023-03-20T11:37:53;97027.81;;;11.96;83.30
25855;BME280;13680;49.936;11.344;2023-03-20T11:40:30;97021.53;;;11.87;84.11
25855;BME280;13680;49.936;11.344;2023-03-20T11:45:33;97023.41;;;11.72;84.21
25855;BME280;13680;49.936;11.344;2023-03-20T11:48:00;97026.00;;;11.91;83.35
25855;BME280;13680;49.936;11.344;2023-03-20T11:50:37;97021.44;;;12.06;83.12
25855;BME280;13680;49.936;11.344;2023-03-20T11:53:28;97022.53;;;12.05;83.03
25855;BME280;13680;49.936;11.344;2023-03-20T11:56:07;97005.72;;;12.22;82.76
25855;BME280;13680;49.936;11.344;2023-03-20T11:58:37;97004.38;;;12.33;80.94
25855;BME280;13680;49.936;11.344;2023-03-20T12:01:03;97006.53;;;12.45;81.25
25855;BME280;13680;49.936;11.344;2023-03-20T12:06:28;97001.66;;;12.70;78.56
25855;BME280;13680;49.936;11.344;2023-03-20T12:09:04;96999.75;;;12.93;78.38
25855;BME280;13680;49.936;11.344;2023-03-20T12:11:44;96995.50;;;13.32;78.71
25855;BME280;13680;49.936;11.344;2023-03-20T12:14:21;96983.19;;;13.49;77.54
25855;BME280;13680;49.936;11.344;2023-03-20T12:16:51;96987.25;;;13.06;75.78
25855;BME280;13680;49.936;11.344;2023-03-20T12:19:22;96983.03;;;12.82;78.33
25855;BME280;13680;49.936;11.344;2023-03-20T12:22:16;96980.25;;;13.05;77.22
25855;BME280;13680;49.936;11.344;2023-03-20T12:24:57;96976.00;;;13.04;77.24
25855;BME280;13680;49.936;11.344;2023-03-20T12:27:33;96974.25;;;13.08;77.12
25855;BME280;13680;49.936;11.344;2023-03-20T12:30:05;96981.31;;;13.26;76.67
25855;BME280;13680;49.936;11.344;2023-03-20T12:36:00;96981.34;;;12.95;76.75
25855;BME280;13680;49.936;11.344;2023-03-20T12:38:30;96978.81;;;12.99;77.37
25855;BME280;13680;49.936;11.344;2023-03-20T12:41:29;96978.91;;;13.16;76.33
25855;BME280;13680;49.936;11.344;2023-03-20T12:44:24;96981.16;;;12.91;76.45
25855;BME280;13680;49.936;11.344;2023-03-20T12:55:40;96972.56;;;12.89;77.93
25855;BME280;13680;49.936;11.344;2023-03-20T12:58:17;96969.91;;;12.98;77.28
25855;BME280;13680;49.936;11.344;2023-03-20T13:01:07;96965.09;;;12.64;77.92
25855;BME280;13680;49.936;11.344;2023-03-20T13:04:03;96970.81;;;12.85;77.91
25855;BME280;13680;49.936;11.344;2023-03-20T13:06:51;96966.06;;;12.90;75.50
25855;BME280;13680;49.936;11.344;2023-03-20T13:12:10;96962.97;;;13.06;75.38
25855;BME280;13680;49.936;11.344;2023-03-20T13:17:15;96957.38;;;13.02;75.65
25855;BME280;13680;49.936;11.344;2023-03-20T13:30:55;96952.56;;;12.90;76.51
25855;BME280;13680;49.936;11.344;2023-03-20T13:39:13;96950.88;;;13.03;75.42
25855;BME280;13680;49.936;11.344;2023-03-20T13:41:43;96942.47;;;13.05;75.52
25855;BME280;13680;49.936;11.344;2023-03-20T13:44:12;96950.38;;;12.92;75.80
25855;BME280;13680;49.936;11.344;2023-03-20T13:46:53;96940.06;;;12.72;76.46
25855;BME280;13680;49.936;11.344;2023-03-20T13:52:18;96931.31;;;12.66;77.30
25855;BME280;13680;49.936;11.344;2023-03-20T14:00:23;96929.28;;;13.03;76.30
25855;BME280;13680;49.936;11.344;2023-03-20T14:03:02;96929.47;;;13.07;76.55
25855;BME280;13680;49.936;11.344;2023-03-20T14:05:35;96923.50;;;13.27;76.28
25855;BME280;13680;49.936;11.344;2023-03-20T14:11:03;96919.63;;;13.51;75.42
25855;BME280;13680;49.936;11.344;2023-03-20T14:13:31;96920.31;;;13.66;75.30
25855;BME280;13680;49.936;11.344;2023-03-20T14:16:00;96917.59;;;13.66;74.13
25855;BME280;13680;49.936;11.344;2023-03-20T14:18:29;96917.00;;;13.29;73.83
25855;BME280;13680;49.936;11.344;2023-03-20T14:21:00;96918.19;;;13.45;73.48
25855;BME280;13680;49.936;11.344;2023-03-20T14:23:33;96909.28;;;13.53;72.72
25855;BME280;13680;49.936;11.344;2023-03-20T14:25:59;96904.88;;;13.66;73.32
25855;BME280;13680;49.936;11.344;2023-03-20T14:28:27;96908.22;;;13.72;74.13
25855;BME280;13680;49.936;11.344;2023-03-20T14:31:33;96913.31;;;13.16;73.83
25855;BME280;13680;49.936;11.344;2023-03-20T14:36:54;96906.25;;;12.66;74.82
25855;BME280;13680;49.936;11.344;2023-03-20T14:53:17;96897.06;;;13.38;72.96
25855;BME280;13680;49.936;11.344;2023-03-20T14:55:52;96900.59;;;13.56;71.54
25855;BME280;13680;49.936;11.344;2023-03-20T14:58:45;96894.69;;;13.05;73.77
25855;BME280;13680;49.936;11.344;2023-03-20T15:06:24;96891.66;;;13.38;73.03
25855;BME280;13680;49.936;11.344;2023-03-20T15:09:13;96900.38;;;13.44;72.60
25855;BME280;13680;49.936;11.344;2023-03-20T15:11:39;96889.34;;;13.32;72.01